Time;durP1;ratioP1;P1;durP2;ratioP2;P2;SDS_P1;SDS_P2;PMS_P1;PMS_P2;Temp;Humidity;BMP_temperature;BMP_pressure;BME280_temperature;BME280_humidity;BME280_pressure;Samples;Min_cycle;Max_cycle;Signal;HPM_P1;HPM_P2
2022/11/04 00:01:05;;;;;;;5.18;4.20;;;9.70;99.90;;;;;;5033800;28;20041;-79
2022/11/04 00:03:30;;;;;;;5.85;5.05;;;9.70;99.90;;;;;;5035414;28;20041;-80
2022/11/04 00:05:59;;;;;;;6.10;3.83;;;9.80;99.90;;;;;;5034265;28;20488;-80
2022/11/04 00:08:25;;;;;;;4.93;3.15;;;9.90;99.90;;;;;;5036789;28;20030;-80
2022/11/04 00:13:43;;;;;;;3.40;3.10;;;10.00;99.90;;;;;;5040470;28;20039;-79
2022/11/04 00:18:53;;;;;;;4.60;3.25;;;10.00;99.90;;;;;;5037443;28;20047;-80
2022/11/04 00:29:33;;;;;;;2.78;2.55;;;10.20;99.90;;;;;;5039110;28;20210;-80
2022/11/04 00:34:43;;;;;;;2.80;1.95;;;10.20;99.90;;;;;;5034871;28;20130;-80
2022/11/04 00:37:08;;;;;;;3.55;2.08;;;10.20;99.90;;;;;;5033694;28;20132;-80
2022/11/04 00:39:34;;;;;;;2.20;1.88;;;10.30;99.90;;;;;;5032373;28;20037;-80
2022/11/04 00:41:59;;;;;;;2.83;1.95;;;10.30;99.90;;;;;;5034623;28;20029;-81
2022/11/04 00:44:25;;;;;;;3.95;2.42;;;10.30;99.90;;;;;;5043174;28;20037;-80
2022/11/04 00:46:50;;;;;;;3.78;2.22;;;10.30;99.90;;;;;;5035067;28;20057;-80
2022/11/04 00:49:16;;;;;;;2.67;1.95;;;10.30;99.90;;;;;;5037251;28;20036;-80
2022/11/04 00:51:41;;;;;;;3.65;2.33;;;10.30;99.90;;;;;;5033618;28;20056;-80
2022/11/04 00:54:07;;;;;;;4.28;2.67;;;10.30;99.90;;;;;;5035374;28;20040;-80
2022/11/04 00:56:36;;;;;;;2.72;1.95;;;10.30;99.90;;;;;;5036163;28;20392;-81
2022/11/04 00:59:01;;;;;;;2.25;2.05;;;10.30;99.90;;;;;;5038034;28;20070;-80
2022/11/04 01:01:27;;;;;;;2.45;1.73;;;10.30;99.90;;;;;;5034543;28;20137;-80
2022/11/04 01:03:53;;;;;;;2.63;2.22;;;10.30;99.90;;;;;;5040223;28;20036;-80
2022/11/04 01:06:20;;;;;;;2.28;2.00;;;10.40;99.90;;;;;;5037176;28;20048;-80
2022/11/04 01:08:46;;;;;;;3.13;1.83;;;10.30;99.90;;;;;;5041572;28;20036;-81
2022/11/04 01:11:12;;;;;;;2.70;1.98;;;10.30;99.90;;;;;;5039221;28;20040;-83
2022/11/04 01:13:38;;;;;;;1.98;1.65;;;10.40;99.90;;;;;;5036965;28;20028;-80
2022/11/04 01:16:07;;;;;;;2.03;1.63;;;10.30;99.90;;;;;;5034303;28;20121;-80
2022/11/04 01:18:33;;;;;;;3.05;1.80;;;10.30;99.90;;;;;;5037671;28;20072;-80
2022/11/04 01:21:06;;;;;;;2.35;1.45;;;10.30;99.90;;;;;;5030621;28;20393;-81
2022/11/04 01:23:34;;;;;;;1.70;1.50;;;10.30;99.90;;;;;;5032752;28;20397;-81
2022/11/04 01:26:00;;;;;;;2.72;1.35;;;10.30;99.90;;;;;;5028730;28;20467;-80
2022/11/04 01:28:25;;;;;;;3.40;1.70;;;10.30;99.90;;;;;;5029572;28;20037;-81
2022/11/04 01:30:51;;;;;;;1.80;1.40;;;10.20;99.90;;;;;;5037860;28;20071;-80
2022/11/04 01:33:17;;;;;;;1.60;1.50;;;10.20;99.90;;;;;;5031863;28;20120;-80
2022/11/04 01:35:42;;;;;;;2.80;1.60;;;10.20;99.90;;;;;;5030720;28;20072;-80
2022/11/04 01:38:08;;;;;;;2.25;1.63;;;10.20;99.90;;;;;;5035410;28;20063;-81
2022/11/04 01:40:38;;;;;;;1.52;1.15;;;10.20;99.90;;;;;;5063928;28;20033;-80
2022/11/04 01:43:20;;;;;;;1.95;1.42;;;10.10;99.90;;;;;;5030423;28;20041;-81
2022/11/04 01:45:58;;;;;;;2.15;1.67;;;10.10;99.90;;;;;;5035474;28;20053;-80
2022/11/04 01:48:33;;;;;;;1.98;1.40;;;10.10;99.90;;;;;;5033792;28;20083;-80
2022/11/04 01:50:59;;;;;;;1.75;1.40;;;10.10;99.90;;;;;;5033787;28;20493;-80
2022/11/04 01:53:31;;;;;;;2.78;1.40;;;10.10;99.90;;;;;;5033612;28;20033;-80
2022/11/04 01:55:59;;;;;;;1.60;1.23;;;10.10;99.90;;;;;;5033011;28;22080;-81
2022/11/04 01:58:30;;;;;;;1.40;1.27;;;10.20;99.90;;;;;;5032951;28;20041;-81
2022/11/04 02:00:55;;;;;;;0.95;0.90;;;10.20;99.90;;;;;;5031524;28;20489;-80
2022/11/04 02:03:31;;;;;;;1.50;1.20;;;10.10;99.90;;;;;;5041386;28;20037;-80
2022/11/04 02:05:57;;;;;;;1.48;0.88;;;10.10;99.90;;;;;;5032059;28;20392;-80
2022/11/04 02:08:24;;;;;;;2.83;1.38;;;10.20;99.90;;;;;;5034994;28;20041;-80
2022/11/04 02:10:56;;;;;;;1.27;1.17;;;10.10;99.90;;;;;;5032912;28;20072;-80
2022/11/04 02:13:22;;;;;;;1.20;1.20;;;10.10;99.90;;;;;;5031442;28;20071;-80
2022/11/04 02:16:09;;;;;;;1.10;0.95;;;10.20;99.90;;;;;;5036449;28;20068;-80
2022/11/04 02:18:42;;;;;;;1.23;1.10;;;10.10;99.90;;;;;;5032456;28;20033;-80
2022/11/04 02:21:30;;;;;;;1.15;1.00;;;10.10;99.90;;;;;;5034524;28;20039;-80
2022/11/04 02:24:26;;;;;;;3.03;1.52;;;10.10;99.90;;;;;;5047491;28;20029;-80
2022/11/04 02:27:00;;;;;;;1.08;1.02;;;10.10;99.90;;;;;;5032837;28;20040;-81
2022/11/04 02:29:31;;;;;;;0.65;0.65;;;10.10;99.90;;;;;;5033586;28;20072;-80
2022/11/04 02:32:14;;;;;;;1.85;1.00;;;10.10;99.90;;;;;;5035301;28;20044;-80
2022/11/04 02:35:07;;;;;;;1.40;1.13;;;10.10;99.90;;;;;;5032053;28;20040;-80
2022/11/04 02:37:45;;;;;;;0.80;0.80;;;10.10;99.90;;;;;;5037144;28;20051;-80
2022/11/04 02:40:16;;;;;;;0.47;0.47;;;10.10;99.90;;;;;;5032337;28;20493;-80
2022/11/04 02:43:01;;;;;;;1.10;1.00;;;10.10;99.90;;;;;;5035044;28;20041;-81
2022/11/04 02:45:39;;;;;;;1.10;1.10;;;10.10;99.90;;;;;;5032712;28;20041;-81
2022/11/04 02:48:11;;;;;;;0.82;0.80;;;10.10;99.90;;;;;;5029711;28;20022;-81
2022/11/04 02:51:02;;;;;;;0.60;0.60;;;10.10;99.90;;;;;;5033934;28;20116;-81
2022/11/04 02:54:06;;;;;;;0.80;0.80;;;10.10;99.90;;;;;;5032356;28;20033;-80
2022/11/04 02:56:36;;;;;;;0.82;0.82;;;10.00;99.90;;;;;;5050286;28;20446;-81
2022/11/04 02:59:08;;;;;;;1.13;0.77;;;10.10;99.90;;;;;;5029834;28;20583;-81
2022/11/04 03:01:38;;;;;;;1.00;1.00;;;10.00;99.90;;;;;;5037475;28;20088;-80
2022/11/04 03:04:16;;;;;;;0.80;0.80;;;10.00;99.90;;;;;;5036693;28;20083;-80
2022/11/04 03:06:42;;;;;;;;;;;10.00;99.90;;;;;;5032509;28;20127;-80
2022/11/04 03:12:38;;;;;;;0.60;0.60;;;10.00;99.90;;;;;;5035826;28;20048;-81
2022/11/04 03:15:08;;;;;;;0.60;0.60;;;9.90;99.90;;;;;;5033995;28;20044;-80
2022/11/04 03:17:49;;;;;;;0.82;0.70;;;9.90;99.90;;;;;;5037774;28;20028;-80
2022/11/04 03:20:20;;;;;;;0.70;0.70;;;9.90;99.90;;;;;;5030614;28;20033;-80
2022/11/04 03:22:46;;;;;;;0.80;0.80;;;9.90;99.90;;;;;;5036388;28;20033;-80
2022/11/04 03:25:12;;;;;;;0.77;0.60;;;9.80;99.90;;;;;;5036405;28;20036;-80
2022/11/04 03:27:47;;;;;;;1.05;0.90;;;9.80;99.90;;;;;;5042009;28;20065;-81
2022/11/04 03:30:15;;;;;;;0.93;0.60;;;9.80;99.90;;;;;;5031191;28;20033;-80
2022/11/04 03:32:56;;;;;;;0.75;0.70;;;9.80;99.90;;;;;;5032978;28;20041;-80
2022/11/04 03:35:22;;;;;;;0.75;0.68;;;9.80;99.90;;;;;;5034335;28;20042;-81
2022/11/04 03:37:48;;;;;;;0.90;0.90;;;9.80;99.90;;;;;;5034857;28;20037;-80
2022/11/04 03:40:15;;;;;;;2.10;0.90;;;9.70;99.90;;;;;;5026026;28;20068;-79
2022/11/04 03:42:49;;;;;;;0.73;0.73;;;9.80;99.90;;;;;;5039884;28;20041;-80
2022/11/04 03:45:15;;;;;;;0.52;0.52;;;9.70;99.90;;;;;;5032615;28;20050;-80
2022/11/04 03:47:41;;;;;;;0.50;0.50;;;9.70;99.90;;;;;;5037456;28;20389;-80
2022/11/04 03:50:23;;;;;;;0.52;0.52;;;9.70;99.90;;;;;;5035372;28;20451;-80
2022/11/04 03:52:49;;;;;;;0.60;0.60;;;9.70;99.90;;;;;;5039837;28;20045;-80
2022/11/04 03:55:15;;;;;;;1.20;0.68;;;9.60;99.90;;;;;;5032909;28;20580;-80
2022/11/04 03:57:56;;;;;;;1.00;0.70;;;9.60;99.90;;;;;;5033116;28;20038;-80
2022/11/04 04:00:23;;;;;;;0.63;0.52;;;9.60;99.90;;;;;;5035612;28;20041;-80
2022/11/04 04:02:54;;;;;;;0.70;0.70;;;9.60;99.90;;;;;;5037633;28;20050;-80
2022/11/04 04:05:28;;;;;;;0.50;0.50;;;9.60;99.90;;;;;;5025302;28;20113;-80
2022/11/04 04:08:22;;;;;;;1.13;0.90;;;9.60;99.90;;;;;;5034968;28;20474;-80
2022/11/04 04:11:15;;;;;;;0.60;0.60;;;9.60;99.90;;;;;;5035979;28;20067;-80
2022/11/04 04:14:02;;;;;;;0.82;0.70;;;9.50;99.90;;;;;;5037753;28;20033;-80
2022/11/04 04:16:41;;;;;;;0.70;0.63;;;9.50;99.90;;;;;;5039540;28;20045;-80
2022/11/04 04:19:11;;;;;;;0.60;0.60;;;9.40;99.90;;;;;;5038099;28;20079;-80
2022/11/04 04:21:59;;;;;;;1.08;0.90;;;9.40;99.90;;;;;;5039741;28;20093;-80
2022/11/04 04:27:32;;;;;;;0.80;0.80;;;9.40;99.90;;;;;;5039695;28;20400;-82
2022/11/04 04:30:09;;;;;;;0.70;0.70;;;9.40;99.90;;;;;;5040106;28;20017;-84
2022/11/04 04:33:00;;;;;;;0.60;0.60;;;9.40;99.90;;;;;;5039983;28;20519;-81
2022/11/04 04:35:42;;;;;;;0.43;0.43;;;9.40;99.90;;;;;;5039681;28;20060;-81
2022/11/04 04:47:06;;;;;;;0.73;0.60;;;9.40;99.90;;;;;;5036653;28;20052;-80
2022/11/04 04:49:33;;;;;;;0.43;0.43;;;9.40;99.90;;;;;;5037203;28;20041;-80
2022/11/04 04:52:01;;;;;;;0.60;0.60;;;9.40;99.90;;;;;;5034829;28;20029;-81
2022/11/04 04:54:27;;;;;;;2.17;0.40;;;9.30;99.90;;;;;;5034820;28;20037;-81
2022/11/04 04:56:53;;;;;;;0.60;0.60;;;9.30;99.90;;;;;;5017666;28;20091;-81
2022/11/04 04:59:18;;;;;;;0.95;0.70;;;9.30;99.90;;;;;;5035862;28;20063;-80
2022/11/04 05:01:44;;;;;;;0.57;0.57;;;9.30;99.90;;;;;;5042035;28;20044;-80
2022/11/04 05:04:10;;;;;;;0.68;0.40;;;9.30;99.90;;;;;;5035492;28;20037;-81
2022/11/04 05:06:35;;;;;;;0.57;0.57;;;9.20;99.90;;;;;;5039177;28;20108;-81
2022/11/04 05:09:01;;;;;;;0.80;0.75;;;9.20;99.90;;;;;;5038867;28;20037;-80
2022/11/04 05:11:26;;;;;;;0.52;0.52;;;9.20;99.90;;;;;;5035946;28;20034;-80
2022/11/04 05:13:52;;;;;;;0.82;0.82;;;9.20;99.90;;;;;;5040183;28;20037;-81
2022/11/04 05:16:18;;;;;;;0.47;0.47;;;9.20;99.90;;;;;;5036419;28;20040;-81
2022/11/04 05:18:43;;;;;;;0.50;0.50;;;9.10;99.90;;;;;;5037184;28;20099;-80
2022/11/04 05:21:12;;;;;;;0.60;0.60;;;9.10;99.90;;;;;;5036496;28;20077;-80
2022/11/04 05:23:38;;;;;;;0.98;0.88;;;9.00;99.90;;;;;;5039847;28;20512;-80
2022/11/04 05:26:04;;;;;;;0.55;0.55;;;9.00;99.90;;;;;;5039300;28;20037;-81
2022/11/04 05:28:30;;;;;;;1.08;1.00;;;9.00;99.90;;;;;;5037845;28;20022;-87
2022/11/04 05:30:57;;;;;;;1.13;0.77;;;8.90;99.90;;;;;;5031899;28;20085;-84
2022/11/04 05:33:22;;;;;;;1.75;0.82;;;9.00;99.90;;;;;;5043716;28;20029;-81
2022/11/04 05:35:48;;;;;;;1.13;0.70;;;9.00;99.90;;;;;;5034806;28;20033;-81
2022/11/04 05:38:13;;;;;;;0.73;0.73;;;9.00;99.90;;;;;;5038186;28;20109;-80
2022/11/04 05:40:39;;;;;;;0.95;0.70;;;9.00;99.90;;;;;;5037122;28;20047;-81
2022/11/04 05:43:05;;;;;;;1.10;0.90;;;9.00;99.90;;;;;;5041958;28;20488;-80
2022/11/04 05:45:30;;;;;;;0.80;0.80;;;9.00;99.90;;;;;;5035582;28;20053;-80
2022/11/04 05:47:57;;;;;;;1.30;0.85;;;9.00;99.90;;;;;;5065394;28;20490;-81
2022/11/04 05:50:23;;;;;;;0.88;0.88;;;9.00;99.90;;;;;;5030583;28;20424;-81
2022/11/04 05:52:48;;;;;;;0.60;0.60;;;8.90;99.90;;;;;;5038661;28;20033;-81
2022/11/04 05:55:14;;;;;;;0.73;0.73;;;8.90;99.90;;;;;;5032317;28;20037;-81
2022/11/04 05:57:40;;;;;;;0.70;0.70;;;8.90;99.90;;;;;;5037897;28;20021;-81
2022/11/04 06:00:06;;;;;;;0.68;0.68;;;8.90;99.90;;;;;;5030311;28;20114;-80
2022/11/04 06:02:31;;;;;;;0.60;0.60;;;8.90;99.90;;;;;;5039608;28;20041;-81
2022/11/04 06:04:57;;;;;;;1.35;0.73;;;8.90;99.90;;;;;;5034583;28;20044;-81
2022/11/04 06:07:23;;;;;;;0.82;0.82;;;8.90;99.90;;;;;;5042687;28;20095;-81
2022/11/04 06:09:48;;;;;;;2.13;0.80;;;8.90;99.90;;;;;;5029623;28;20099;-80
2022/11/04 06:12:15;;;;;;;0.80;0.80;;;8.90;99.90;;;;;;5032857;28;20029;-81
2022/11/04 06:14:42;;;;;;;2.40;1.00;;;8.90;99.90;;;;;;5035207;28;20053;-80
2022/11/04 06:17:19;;;;;;;1.45;0.90;;;8.90;99.90;;;;;;5036038;28;20025;-80
2022/11/04 06:19:45;;;;;;;3.35;0.90;;;8.90;99.90;;;;;;5031327;28;20041;-79
2022/11/04 06:22:13;;;;;;;1.10;1.00;;;8.90;99.90;;;;;;5036290;28;20041;-80
2022/11/04 06:24:40;;;;;;;1.00;0.98;;;8.90;99.90;;;;;;5041855;28;20029;-80
2022/11/04 06:27:06;;;;;;;1.10;1.00;;;8.90;99.90;;;;;;5035868;28;20044;-85
2022/11/04 06:29:31;;;;;;;1.35;0.90;;;8.90;99.90;;;;;;5031807;28;20038;-81
2022/11/04 06:31:57;;;;;;;0.88;0.88;;;8.90;99.90;;;;;;5036362;28;20049;-80
2022/11/04 06:34:23;;;;;;;1.08;0.90;;;8.90;99.90;;;;;;5036489;28;20409;-80
2022/11/04 06:36:49;;;;;;;2.97;1.00;;;8.90;99.90;;;;;;5036268;28;20041;-80
2022/11/04 06:39:15;;;;;;;1.00;1.00;;;8.90;99.90;;;;;;5033172;28;20404;-80
2022/11/04 06:41:41;;;;;;;1.00;0.98;;;8.90;99.90;;;;;;5034904;28;20037;-80
2022/11/04 06:44:06;;;;;;;2.63;1.25;;;8.90;99.90;;;;;;5044141;28;20049;-80
2022/11/04 06:46:39;;;;;;;11.65;5.93;;;8.90;99.90;;;;;;5031475;28;20088;-80
2022/11/04 06:49:08;;;;;;;17.88;9.10;;;8.90;99.90;;;;;;5038742;28;20033;-80
2022/11/04 06:51:34;;;;;;;8.13;5.38;;;8.90;99.90;;;;;;5035749;28;20037;-80
2022/11/04 06:54:00;;;;;;;8.75;4.80;;;8.90;99.90;;;;;;5040828;28;20064;-80
2022/11/04 06:56:26;;;;;;;8.02;6.00;;;8.90;99.90;;;;;;5031441;28;20038;-80
2022/11/04 06:58:53;;;;;;;5.10;4.00;;;9.00;99.90;;;;;;5031998;28;20443;-80
2022/11/04 07:01:20;;;;;;;6.13;4.60;;;9.00;99.90;;;;;;5034587;28;20065;-80
2022/11/04 07:03:50;;;;;;;5.65;3.90;;;9.00;99.90;;;;;;5034308;28;20087;-80
2022/11/04 07:06:16;;;;;;;3.03;2.53;;;9.00;99.90;;;;;;5035520;28;20026;-80
2022/11/04 07:08:42;;;;;;;2.00;1.80;;;9.00;99.90;;;;;;5033586;28;20030;-81
2022/11/04 07:11:07;;;;;;;1.23;1.00;;;9.10;99.90;;;;;;5032590;28;20459;-79
2022/11/04 07:13:33;;;;;;;1.23;1.10;;;9.00;99.90;;;;;;5032092;28;20029;-80
2022/11/04 07:15:59;;;;;;;0.85;0.85;;;9.00;99.90;;;;;;5028825;28;20128;-79
2022/11/04 07:18:25;;;;;;;2.00;1.50;;;8.90;99.90;;;;;;5034698;28;20021;-79
2022/11/04 07:20:51;;;;;;;1.58;1.20;;;8.80;99.90;;;;;;5035466;28;20025;-81
2022/11/04 07:23:17;;;;;;;1.55;0.90;;;8.70;99.90;;;;;;5030825;28;20032;-80
2022/11/04 07:25:42;;;;;;;1.20;1.10;;;8.60;99.90;;;;;;5030396;28;20033;-86
2022/11/04 07:28:08;;;;;;;1.02;1.00;;;8.60;99.90;;;;;;5028613;28;20049;-80
2022/11/04 07:30:34;;;;;;;1.02;0.98;;;8.50;99.90;;;;;;5034547;28;20032;-80
2022/11/04 07:32:59;;;;;;;1.10;1.00;;;8.50;99.90;;;;;;5035205;28;20037;-80
2022/11/04 07:35:25;;;;;;;1.00;1.00;;;8.50;99.90;;;;;;5038178;28;20036;-80
2022/11/04 07:37:51;;;;;;;0.95;0.95;;;8.50;99.90;;;;;;5035507;28;20025;-80
2022/11/04 07:40:16;;;;;;;1.15;1.05;;;8.60;99.90;;;;;;5037250;28;20049;-81
2022/11/04 07:42:42;;;;;;;1.85;1.60;;;8.60;99.90;;;;;;5036594;28;20048;-79
2022/11/04 07:45:08;;;;;;;1.40;1.20;;;8.70;99.90;;;;;;5036252;28;20057;-80
2022/11/04 07:47:34;;;;;;;2.08;1.52;;;8.70;99.90;;;;;;5037787;28;20029;-80
2022/11/04 07:49:59;;;;;;;3.42;1.35;;;8.60;99.90;;;;;;5037472;28;20478;-81
2022/11/04 07:52:25;;;;;;;2.30;1.80;;;8.70;99.90;;;;;;5039476;28;20040;-80
2022/11/04 07:54:51;;;;;;;2.63;1.90;;;8.60;99.90;;;;;;5044710;28;21317;-80
2022/11/04 07:57:16;;;;;;;2.35;2.00;;;8.50;99.90;;;;;;5039422;28;20030;-80
2022/11/04 07:59:42;;;;;;;3.70;2.05;;;8.60;99.90;;;;;;5038109;28;20033;-80
2022/11/04 08:02:09;;;;;;;4.20;2.08;;;8.70;99.90;;;;;;5035728;28;20069;-80
2022/11/04 08:04:35;;;;;;;3.33;2.17;;;8.70;99.90;;;;;;5035270;28;20021;-79
2022/11/04 08:07:01;;;;;;;1.92;1.63;;;8.70;99.90;;;;;;5040841;28;20025;-80
2022/11/04 08:09:27;;;;;;;2.28;1.80;;;8.80;99.90;;;;;;5038092;28;20036;-80
2022/11/04 08:11:52;;;;;;;2.13;1.92;;;8.80;99.90;;;;;;5030786;28;20022;-80
2022/11/04 08:14:18;;;;;;;2.65;1.95;;;8.80;99.90;;;;;;5038085;28;20137;-80
2022/11/04 08:16:43;;;;;;;1.38;1.00;;;8.80;99.90;;;;;;5036228;28;20036;-81
2022/11/04 08:19:09;;;;;;;1.30;1.20;;;8.80;99.90;;;;;;5038021;28;20108;-85
2022/11/04 08:21:34;;;;;;;1.00;1.00;;;8.70;99.90;;;;;;5038143;28;20029;-80
2022/11/04 08:24:04;;;;;;;1.70;1.40;;;8.70;99.90;;;;;;5039840;28;20128;-80
2022/11/04 08:26:30;;;;;;;2.03;1.27;;;8.70;99.90;;;;;;5038356;28;20033;-80
2022/11/04 08:28:56;;;;;;;2.53;1.27;;;8.70;99.90;;;;;;5036712;28;20025;-80
2022/11/04 08:31:25;;;;;;;1.25;1.15;;;8.70;99.90;;;;;;5033911;28;20064;-80
2022/11/04 08:33:52;;;;;;;2.08;1.40;;;8.70;99.90;;;;;;5042120;28;20677;-81
2022/11/04 08:36:21;;;;;;;1.58;1.40;;;8.80;99.90;;;;;;5039018;28;20033;-80
2022/11/04 08:38:47;;;;;;;1.30;1.20;;;8.80;99.90;;;;;;5037050;28;20025;-80
2022/11/04 08:41:15;;;;;;;1.60;1.50;;;8.80;99.90;;;;;;5039114;28;20037;-80
2022/11/04 08:43:41;;;;;;;1.73;1.20;;;8.80;99.90;;;;;;5039404;28;20053;-81
2022/11/04 08:46:08;;;;;;;2.63;1.85;;;8.80;99.90;;;;;;5040234;28;20296;-80
2022/11/04 08:48:35;;;;;;;1.55;1.45;;;8.80;99.90;;;;;;5035769;28;20557;-80
2022/11/04 08:51:02;;;;;;;3.95;1.60;;;8.80;99.90;;;;;;5037787;28;20501;-80
2022/11/04 08:53:28;;;;;;;2.25;1.55;;;8.90;99.90;;;;;;5035472;28;20033;-80
2022/11/04 08:55:53;;;;;;;1.75;1.35;;;8.80;99.90;;;;;;5036218;28;20040;-80
2022/11/04 08:58:20;;;;;;;2.85;1.50;;;8.80;99.90;;;;;;5043128;28;20033;-80
2022/11/04 09:00:45;;;;;;;1.98;1.33;;;8.80;99.90;;;;;;5037255;28;20030;-80
2022/11/04 09:03:11;;;;;;;2.47;1.27;;;8.80;99.90;;;;;;5033972;28;20470;-81
2022/11/04 09:05:43;;;;;;;1.30;1.20;;;8.80;99.90;;;;;;5039802;28;20041;-81
2022/11/04 09:08:13;;;;;;;1.90;1.73;;;8.80;99.90;;;;;;5037652;28;20112;-80
2022/11/04 09:10:46;;;;;;;2.25;1.50;;;8.80;99.90;;;;;;5034472;28;20134;-81
2022/11/04 09:13:14;;;;;;;1.65;1.55;;;8.80;99.90;;;;;;5038238;28;20103;-81
2022/11/04 09:15:40;;;;;;;1.67;1.58;;;8.70;99.90;;;;;;5068379;28;20037;-80
2022/11/04 09:18:06;;;;;;;1.50;1.40;;;8.80;99.90;;;;;;5040055;28;20016;-82
2022/11/04 09:20:32;;;;;;;1.40;1.30;;;8.80;99.90;;;;;;5035703;28;20461;-81
2022/11/04 09:22:58;;;;;;;2.15;1.77;;;8.80;99.90;;;;;;5035038;28;20032;-81
2022/11/04 09:25:24;;;;;;;2.08;1.95;;;8.90;99.90;;;;;;5041087;28;20042;-80
2022/11/04 09:27:50;;;;;;;2.15;1.77;;;8.90;99.90;;;;;;5029020;28;20042;-81
2022/11/04 09:30:16;;;;;;;3.92;2.10;;;8.90;99.90;;;;;;5037991;28;20040;-80
2022/11/04 09:32:42;;;;;;;2.55;1.73;;;8.90;99.90;;;;;;5039419;28;20133;-78
2022/11/04 09:35:09;;;;;;;2.47;1.77;;;9.00;99.90;;;;;;5038688;28;20069;-79
2022/11/04 09:37:34;;;;;;;1.70;1.58;;;8.90;99.90;;;;;;5033868;28;20025;-78
2022/11/04 09:40:00;;;;;;;2.58;1.90;;;9.00;99.90;;;;;;5032046;28;20400;-78
2022/11/04 09:42:46;;;;;;;1.75;1.65;;;9.00;99.90;;;;;;5037022;28;20098;-78
2022/11/04 09:45:17;;;;;;;1.63;1.52;;;9.00;99.90;;;;;;5050043;28;20084;-78
2022/11/04 09:47:46;;;;;;;2.05;1.88;;;9.10;99.90;;;;;;5031036;28;20036;-78
2022/11/04 09:50:31;;;;;;;2.10;1.73;;;9.10;99.90;;;;;;5035409;28;20041;-79
2022/11/04 09:53:16;;;;;;;1.80;1.70;;;9.20;99.90;;;;;;5038379;28;20060;-78
2022/11/04 09:56:00;;;;;;;71.85;32.25;;;9.20;99.90;;;;;;5034765;28;20033;-78
2022/11/04 09:58:31;;;;;;;55.15;24.55;;;9.20;99.90;;;;;;5036677;28;20033;-79
2022/11/04 10:01:12;;;;;;;11.88;6.40;;;9.30;99.90;;;;;;5030906;28;20042;-78
2022/11/04 10:03:57;;;;;;;7.45;4.28;;;9.30;99.90;;;;;;5034553;28;20026;-81
2022/11/04 10:06:41;;;;;;;2.70;1.95;;;9.30;99.90;;;;;;5040223;28;20104;-79
2022/11/04 10:09:25;;;;;;;1.92;1.63;;;9.30;99.90;;;;;;5031685;28;20113;-78
2022/11/04 10:12:15;;;;;;;2.83;1.60;;;9.30;99.90;;;;;;5036940;28;20362;-79
2022/11/04 10:14:41;;;;;;;2.95;1.70;;;9.30;99.90;;;;;;5032507;28;20041;-78
2022/11/04 10:17:28;;;;;;;2.10;1.85;;;9.30;99.90;;;;;;5037643;28;20029;-79
2022/11/04 10:20:25;;;;;;;2.42;1.83;;;9.30;99.90;;;;;;5028748;28;20081;-79
2022/11/04 10:22:59;;;;;;;1.75;1.65;;;9.40;99.90;;;;;;5028465;28;20045;-80
2022/11/04 10:25:39;;;;;;;1.90;1.70;;;9.40;99.90;;;;;;5038774;28;20701;-81
2022/11/04 10:28:11;;;;;;;1.65;1.55;;;9.40;99.90;;;;;;5037203;28;20026;-80
2022/11/04 10:30:40;;;;;;;2.03;1.85;;;9.40;99.90;;;;;;5034854;28;20025;-80
2022/11/04 10:33:15;;;;;;;2.47;1.70;;;9.40;99.90;;;;;;5035724;28;20033;-79
2022/11/04 10:35:46;;;;;;;1.92;1.83;;;9.40;99.90;;;;;;5037487;28;20063;-79
2022/11/04 10:38:23;;;;;;;3.30;1.88;;;9.40;99.90;;;;;;5037275;28;20038;-79
2022/11/04 10:40:52;;;;;;;2.28;1.80;;;9.40;99.90;;;;;;5032977;28;20504;-80
2022/11/04 10:43:29;;;;;;;3.28;1.88;;;9.40;99.90;;;;;;5037495;28;20048;-80
2022/11/04 10:46:16;;;;;;;2.22;1.98;;;9.50;99.90;;;;;;5035314;28;20837;-80
2022/11/04 10:49:03;;;;;;;1.75;1.60;;;9.40;99.90;;;;;;5063119;28;20845;-79
2022/11/04 10:51:29;;;;;;;1.70;1.60;;;9.50;99.90;;;;;;5035206;28;20056;-79
2022/11/04 10:53:57;;;;;;;1.77;1.50;;;9.50;99.90;;;;;;5033978;28;20026;-79
2022/11/04 10:56:34;;;;;;;1.63;1.52;;;9.50;99.90;;;;;;5032789;28;20033;-81
2022/11/04 10:59:23;;;;;;;1.42;1.33;;;9.40;99.90;;;;;;5053601;28;20042;-80
2022/11/04 11:01:51;;;;;;;1.52;1.42;;;9.40;99.90;;;;;;5035872;28;20037;-79
2022/11/04 11:04:45;;;;;;;1.73;1.63;;;9.40;99.90;;;;;;5035360;28;20025;-79
2022/11/04 11:07:17;;;;;;;1.67;1.58;;;9.40;99.90;;;;;;5032654;28;20042;-80
2022/11/04 11:09:48;;;;;;;1.85;1.60;;;9.50;99.90;;;;;;5032685;28;20022;-79
2022/11/04 11:12:15;;;;;;;1.60;1.50;;;9.40;99.90;;;;;;5036601;28;20040;-79
2022/11/04 11:14:41;;;;;;;2.25;1.77;;;9.50;99.90;;;;;;5028976;28;20119;-79
2022/11/04 11:17:34;;;;;;;1.95;1.70;;;9.50;99.90;;;;;;5039743;28;20025;-79
2022/11/04 11:20:06;;;;;;;2.92;1.70;;;9.60;99.90;;;;;;5040006;28;20049;-79
2022/11/04 11:22:40;;;;;;;3.67;1.70;;;9.70;99.90;;;;;;5036748;28;20040;-79
2022/11/04 11:25:26;;;;;;;1.70;1.60;;;9.70;99.90;;;;;;5037348;28;20041;-81
2022/11/04 11:27:56;;;;;;;2.08;1.40;;;9.80;99.90;;;;;;5039428;28;20045;-81
2022/11/04 11:30:42;;;;;;;5.47;2.40;;;9.70;99.90;;;;;;5034453;28;20029;-80
2022/11/04 11:33:51;;;;;;;1.67;1.58;;;9.70;99.90;;;;;;5035821;28;20033;-80
2022/11/04 11:36:22;;;;;;;1.83;1.73;;;9.70;99.90;;;;;;5006266;28;20056;-79
2022/11/04 11:39:20;;;;;;;2.05;1.77;;;9.70;99.90;;;;;;5033506;28;20037;-79
2022/11/04 11:41:54;;;;;;;1.77;1.63;;;9.70;99.90;;;;;;5040175;28;20113;-79
2022/11/04 11:44:43;;;;;;;1.95;1.75;;;9.80;99.90;;;;;;5044532;28;20118;-80
2022/11/04 11:47:23;;;;;;;;;;;9.80;99.90;;;;;;5039529;28;20144;-80
2022/11/04 11:50:15;;;;;;;3.20;1.80;;;9.80;99.90;;;;;;5039305;28;19916;-80
2022/11/04 11:52:42;;;;;;;2.10;1.90;;;9.80;99.90;;;;;;5038538;28;20527;-79
2022/11/04 11:55:31;;;;;;;1.88;1.63;;;9.80;99.90;;;;;;5038213;28;20124;-79
2022/11/04 11:58:23;;;;;;;1.92;1.83;;;9.80;99.90;;;;;;5035926;28;20100;-79
2022/11/04 12:01:02;;;;;;;1.70;1.60;;;9.80;99.90;;;;;;5031634;28;20032;-80
2022/11/04 12:03:45;;;;;;;2.05;1.30;;;9.80;99.90;;;;;;5039562;28;20097;-81
2022/11/04 12:06:21;;;;;;;1.63;1.52;;;9.80;99.90;;;;;;5038381;28;20029;-79
2022/11/04 12:09:06;;;;;;;2.13;1.48;;;9.80;99.90;;;;;;5041296;28;20026;-80
2022/11/04 12:12:16;;;;;;;1.45;1.38;;;9.80;99.90;;;;;;5037973;28;20117;-79
2022/11/04 12:14:57;;;;;;;1.38;1.27;;;9.80;99.90;;;;;;5008395;28;20501;-80
2022/11/04 12:17:35;;;;;;;1.33;1.23;;;9.80;99.90;;;;;;5039117;28;20028;-79
2022/11/04 12:20:06;;;;;;;2.00;1.60;;;9.90;99.90;;;;;;5036387;28;20034;-79
2022/11/04 12:22:51;;;;;;;1.58;1.48;;;9.90;99.90;;;;;;5052302;28;20386;-80
2022/11/04 12:25:49;;;;;;;1.70;1.60;;;9.90;99.90;;;;;;5035645;28;20438;-80
2022/11/04 12:28:25;;;;;;;;;;;9.90;99.90;;;;;;5039133;28;20028;-79
2022/11/04 12:30:54;;;;;;;1.70;1.60;;;9.90;99.90;;;;;;5036048;28;19959;-80
2022/11/04 12:33:37;;;;;;;1.70;1.40;;;9.90;99.90;;;;;;5042748;28;20033;-79
2022/11/04 12:36:06;;;;;;;2.53;1.63;;;9.90;99.90;;;;;;5040832;28;20057;-80
2022/11/04 12:38:54;;;;;;;2.33;1.60;;;10.00;99.90;;;;;;5038903;28;20036;-79
2022/11/04 12:41:59;;;;;;;2.35;1.73;;;10.00;99.90;;;;;;5034507;28;20044;-79
2022/11/04 12:44:43;;;;;;;5.05;1.80;;;10.00;99.90;;;;;;5032689;28;20029;-80
2022/11/04 12:47:32;;;;;;;2.45;1.40;;;10.00;99.90;;;;;;5039061;28;20061;-80
2022/11/04 12:50:16;;;;;;;;;;;10.10;99.90;;;;;;5039934;28;20076;-80
2022/11/04 12:52:56;;;;;;;1.95;1.73;;;10.10;99.90;;;;;;5037782;28;19972;-79
2022/11/04 12:55:34;;;;;;;1.60;1.50;;;10.10;99.90;;;;;;5041911;28;20037;-79
2022/11/04 12:58:40;;;;;;;2.45;1.70;;;10.10;99.90;;;;;;5040801;28;20033;-79
2022/11/04 13:01:36;;;;;;;1.80;1.70;;;10.00;99.90;;;;;;4981953;28;20042;-80
2022/11/04 13:04:28;;;;;;;2.60;1.70;;;10.00;99.90;;;;;;4991864;28;20050;-79
2022/11/04 13:06:59;;;;;;;4.82;1.83;;;9.90;99.90;;;;;;5029725;28;20033;-80
2022/11/04 13:09:43;;;;;;;1.63;1.52;;;9.90;99.90;;;;;;5037011;28;20044;-79
2022/11/04 13:12:16;;;;;;;3.55;1.70;;;10.00;99.90;;;;;;5036760;28;20033;-80
2022/11/04 13:14:57;;;;;;;1.85;1.65;;;9.90;99.90;;;;;;5032628;28;20088;-80
2022/11/04 13:17:28;;;;;;;3.05;1.50;;;9.90;99.90;;;;;;5037596;28;20478;-80
2022/11/04 13:20:04;;;;;;;2.10;1.40;;;9.90;99.90;;;;;;5034495;28;20053;-81
2022/11/04 13:22:35;;;;;;;2.25;1.90;;;10.00;99.90;;;;;;5037918;28;20099;-79
2022/11/04 13:25:03;;;;;;;2.03;1.42;;;10.00;99.90;;;;;;5035205;28;20112;-82
2022/11/04 13:27:36;;;;;;;1.65;1.55;;;10.10;99.90;;;;;;5030660;28;20035;-84
2022/11/04 13:30:43;;;;;;;1.30;1.20;;;10.00;99.90;;;;;;5036473;28;20029;-83
2022/11/04 13:33:18;;;;;;;2.50;1.50;;;10.10;99.90;;;;;;5020198;28;20044;-80
2022/11/04 13:35:55;;;;;;;1.33;1.25;;;10.10;99.90;;;;;;5023253;28;20041;-79
2022/11/04 13:38:33;;;;;;;4.95;1.60;;;10.10;99.90;;;;;;5013540;28;20022;-79
2022/11/04 13:41:26;;;;;;;3.28;1.88;;;10.20;99.90;;;;;;5013023;28;20107;-79
2022/11/04 13:43:56;;;;;;;1.80;1.45;;;10.20;99.90;;;;;;5008380;28;20436;-79
2022/11/04 13:46:29;;;;;;;2.50;1.75;;;10.10;99.90;;;;;;5014004;28;20042;-79
2022/11/04 13:49:17;;;;;;;3.53;1.70;;;10.20;99.90;;;;;;5014909;28;20030;-79
2022/11/04 13:51:46;;;;;;;3.53;1.50;;;10.10;99.90;;;;;;5018626;28;20034;-79
2022/11/04 13:54:37;;;;;;;2.25;1.50;;;10.10;99.90;;;;;;5017343;28;20086;-79